sensor_id;sensor_type;location;lat;lon;timestamp;P1;durP1;ratioP1;P2;durP2;ratioP2
15354;SDS011;7777;52.254;9.618;2023-09-07T00:00:14;4.47;;;3.10;;
15354;SDS011;7777;52.254;9.618;2023-09-07T00:02:40;3.60;;;2.73;;
15354;SDS011;7777;52.254;9.618;2023-09-07T00:05:07;4.50;;;2.80;;
15354;SDS011;7777;52.254;9.618;2023-09-07T00:07:33;5.53;;;2.97;;
15354;SDS011;7777;52.254;9.618;2023-09-07T00:10:00;6.67;;;3.33;;
15354;SDS011;7777;52.254;9.618;2023-09-07T00:12:26;3.63;;;2.73;;
15354;SDS011;7777;52.254;9.618;2023-09-07T00:14:52;3.80;;;2.70;;
15354;SDS011;7777;52.254;9.618;2023-09-07T00:17:19;3.77;;;2.87;;
15354;SDS011;7777;52.254;9.618;2023-09-07T00:19:45;7.90;;;2.73;;
15354;SDS011;7777;52.254;9.618;2023-09-07T00:22:14;6.13;;;3.17;;
15354;SDS011;7777;52.254;9.618;2023-09-07T00:24:40;5.07;;;3.33;;
15354;SDS011;7777;52.254;9.618;2023-09-07T00:27:06;4.33;;;2.60;;
15354;SDS011;7777;52.254;9.618;2023-09-07T00:29:33;9.50;;;3.17;;
15354;SDS011;7777;52.254;9.618;2023-09-07T00:32:00;5.93;;;3.13;;
15354;SDS011;7777;52.254;9.618;2023-09-07T00:34:26;4.23;;;3.60;;
15354;SDS011;7777;52.254;9.618;2023-09-07T00:36:51;5.77;;;2.87;;
15354;SDS011;7777;52.254;9.618;2023-09-07T00:39:17;4.53;;;3.23;;
15354;SDS011;7777;52.254;9.618;2023-09-07T00:41:43;7.60;;;2.70;;
15354;SDS011;7777;52.254;9.618;2023-09-07T00:44:08;4.27;;;3.13;;
15354;SDS011;7777;52.254;9.618;2023-09-07T00:46:34;5.40;;;3.47;;
15354;SDS011;7777;52.254;9.618;2023-09-07T00:49:01;4.80;;;3.03;;
15354;SDS011;7777;52.254;9.618;2023-09-07T00:51:27;9.03;;;4.03;;
15354;SDS011;7777;52.254;9.618;2023-09-07T00:53:53;9.73;;;4.93;;
15354;SDS011;7777;52.254;9.618;2023-09-07T00:56:19;5.80;;;3.57;;
15354;SDS011;7777;52.254;9.618;2023-09-07T00:58:45;5.07;;;3.40;;
15354;SDS011;7777;52.254;9.618;2023-09-07T01:01:11;4.13;;;3.30;;
15354;SDS011;7777;52.254;9.618;2023-09-07T01:03:37;8.93;;;4.17;;
15354;SDS011;7777;52.254;9.618;2023-09-07T01:08:39;5.70;;;3.67;;
15354;SDS011;7777;52.254;9.618;2023-09-07T01:11:13;9.73;;;3.63;;
15354;SDS011;7777;52.254;9.618;2023-09-07T01:13:45;7.63;;;4.03;;
15354;SDS011;7777;52.254;9.618;2023-09-07T01:16:12;5.47;;;3.77;;
15354;SDS011;7777;52.254;9.618;2023-09-07T01:18:38;4.40;;;3.37;;
15354;SDS011;7777;52.254;9.618;2023-09-07T01:21:07;6.93;;;3.33;;
15354;SDS011;7777;52.254;9.618;2023-09-07T01:23:37;4.33;;;3.17;;
15354;SDS011;7777;52.254;9.618;2023-09-07T01:26:06;5.33;;;3.20;;
15354;SDS011;7777;52.254;9.618;2023-09-07T01:28:34;4.93;;;3.37;;
15354;SDS011;7777;52.254;9.618;2023-09-07T01:31:00;5.50;;;3.23;;
15354;SDS011;7777;52.254;9.618;2023-09-07T01:33:26;4.83;;;2.77;;
15354;SDS011;7777;52.254;9.618;2023-09-07T01:35:52;6.93;;;3.93;;
15354;SDS011;7777;52.254;9.618;2023-09-07T01:38:18;3.90;;;3.20;;
15354;SDS011;7777;52.254;9.618;2023-09-07T01:40:44;5.70;;;3.37;;
15354;SDS011;7777;52.254;9.618;2023-09-07T01:43:10;6.53;;;3.40;;
15354;SDS011;7777;52.254;9.618;2023-09-07T01:45:36;4.00;;;3.20;;
15354;SDS011;7777;52.254;9.618;2023-09-07T01:48:01;4.47;;;3.93;;
15354;SDS011;7777;52.254;9.618;2023-09-07T01:50:28;4.10;;;3.20;;
15354;SDS011;7777;52.254;9.618;2023-09-07T01:52:54;5.57;;;3.23;;
15354;SDS011;7777;52.254;9.618;2023-09-07T01:55:19;4.57;;;3.23;;
15354;SDS011;7777;52.254;9.618;2023-09-07T01:57:45;4.37;;;3.50;;
15354;SDS011;7777;52.254;9.618;2023-09-07T02:00:11;6.73;;;3.80;;
15354;SDS011;7777;52.254;9.618;2023-09-07T02:02:38;7.93;;;3.60;;
15354;SDS011;7777;52.254;9.618;2023-09-07T02:05:03;8.57;;;4.07;;
15354;SDS011;7777;52.254;9.618;2023-09-07T02:07:30;5.60;;;4.37;;
15354;SDS011;7777;52.254;9.618;2023-09-07T02:09:55;5.83;;;4.20;;
15354;SDS011;7777;52.254;9.618;2023-09-07T02:12:22;6.30;;;4.40;;
15354;SDS011;7777;52.254;9.618;2023-09-07T02:14:47;9.50;;;4.90;;
15354;SDS011;7777;52.254;9.618;2023-09-07T02:17:13;8.90;;;4.87;;
15354;SDS011;7777;52.254;9.618;2023-09-07T02:19:43;7.17;;;5.07;;
15354;SDS011;7777;52.254;9.618;2023-09-07T02:22:09;5.93;;;4.47;;
15354;SDS011;7777;52.254;9.618;2023-09-07T02:24:35;5.13;;;4.60;;
15354;SDS011;7777;52.254;9.618;2023-09-07T02:27:01;7.60;;;4.37;;
15354;SDS011;7777;52.254;9.618;2023-09-07T02:29:27;6.00;;;4.37;;
15354;SDS011;7777;52.254;9.618;2023-09-07T02:31:52;6.33;;;4.20;;
15354;SDS011;7777;52.254;9.618;2023-09-07T02:34:18;6.47;;;4.70;;
15354;SDS011;7777;52.254;9.618;2023-09-07T02:36:44;11.47;;;4.77;;
15354;SDS011;7777;52.254;9.618;2023-09-07T02:39:09;8.07;;;5.33;;
15354;SDS011;7777;52.254;9.618;2023-09-07T02:41:36;6.17;;;5.20;;
15354;SDS011;7777;52.254;9.618;2023-09-07T02:44:03;8.40;;;5.07;;
15354;SDS011;7777;52.254;9.618;2023-09-07T02:46:29;7.40;;;4.97;;
15354;SDS011;7777;52.254;9.618;2023-09-07T02:48:58;7.77;;;5.30;;
15354;SDS011;7777;52.254;9.618;2023-09-07T02:51:24;9.10;;;5.47;;
15354;SDS011;7777;52.254;9.618;2023-09-07T02:53:50;6.83;;;4.70;;
15354;SDS011;7777;52.254;9.618;2023-09-07T02:56:17;5.47;;;4.90;;
15354;SDS011;7777;52.254;9.618;2023-09-07T02:58:43;6.63;;;5.07;;
15354;SDS011;7777;52.254;9.618;2023-09-07T03:01:10;8.03;;;5.60;;
15354;SDS011;7777;52.254;9.618;2023-09-07T03:03:36;8.27;;;5.83;;
15354;SDS011;7777;52.254;9.618;2023-09-07T03:06:12;8.67;;;5.70;;
15354;SDS011;7777;52.254;9.618;2023-09-07T03:08:39;7.23;;;5.17;;
15354;SDS011;7777;52.254;9.618;2023-09-07T03:11:06;11.60;;;5.10;;
15354;SDS011;7777;52.254;9.618;2023-09-07T03:13:33;7.30;;;4.77;;
15354;SDS011;7777;52.254;9.618;2023-09-07T03:15:59;6.90;;;5.07;;
15354;SDS011;7777;52.254;9.618;2023-09-07T03:18:27;8.10;;;5.60;;
15354;SDS011;7777;52.254;9.618;2023-09-07T03:20:53;7.83;;;5.37;;
15354;SDS011;7777;52.254;9.618;2023-09-07T03:23:20;6.80;;;5.27;;
15354;SDS011;7777;52.254;9.618;2023-09-07T03:25:47;7.23;;;5.37;;
15354;SDS011;7777;52.254;9.618;2023-09-07T03:28:13;8.37;;;5.80;;
15354;SDS011;7777;52.254;9.618;2023-09-07T03:30:39;8.67;;;5.30;;
15354;SDS011;7777;52.254;9.618;2023-09-07T03:33:05;8.70;;;5.33;;
15354;SDS011;7777;52.254;9.618;2023-09-07T03:35:31;5.27;;;4.57;;
15354;SDS011;7777;52.254;9.618;2023-09-07T03:37:57;6.10;;;5.40;;
15354;SDS011;7777;52.254;9.618;2023-09-07T03:40:23;7.43;;;4.80;;
15354;SDS011;7777;52.254;9.618;2023-09-07T03:42:49;8.40;;;5.77;;
15354;SDS011;7777;52.254;9.618;2023-09-07T03:45:15;9.63;;;5.13;;
15354;SDS011;7777;52.254;9.618;2023-09-07T03:47:41;7.43;;;5.00;;
15354;SDS011;7777;52.254;9.618;2023-09-07T03:50:07;10.47;;;5.83;;
15354;SDS011;7777;52.254;9.618;2023-09-07T03:52:33;8.37;;;5.20;;
15354;SDS011;7777;52.254;9.618;2023-09-07T03:54:59;5.73;;;4.63;;
15354;SDS011;7777;52.254;9.618;2023-09-07T03:57:26;7.37;;;5.30;;
15354;SDS011;7777;52.254;9.618;2023-09-07T03:59:52;7.30;;;4.97;;
15354;SDS011;7777;52.254;9.618;2023-09-07T04:02:20;8.23;;;5.30;;
15354;SDS011;7777;52.254;9.618;2023-09-07T04:04:50;6.20;;;5.10;;
15354;SDS011;7777;52.254;9.618;2023-09-07T04:07:17;6.50;;;4.97;;
15354;SDS011;7777;52.254;9.618;2023-09-07T04:09:44;8.07;;;4.80;;
15354;SDS011;7777;52.254;9.618;2023-09-07T04:12:10;10.10;;;4.90;;
15354;SDS011;7777;52.254;9.618;2023-09-07T04:14:36;6.60;;;5.17;;
15354;SDS011;7777;52.254;9.618;2023-09-07T04:17:03;7.13;;;4.97;;
15354;SDS011;7777;52.254;9.618;2023-09-07T04:19:29;9.97;;;5.30;;
15354;SDS011;7777;52.254;9.618;2023-09-07T04:21:56;9.50;;;5.47;;
15354;SDS011;7777;52.254;9.618;2023-09-07T04:24:22;7.17;;;5.37;;
15354;SDS011;7777;52.254;9.618;2023-09-07T04:26:48;8.27;;;5.33;;
15354;SDS011;7777;52.254;9.618;2023-09-07T04:29:15;9.63;;;5.20;;
15354;SDS011;7777;52.254;9.618;2023-09-07T04:31:41;6.03;;;4.53;;
15354;SDS011;7777;52.254;9.618;2023-09-07T04:34:07;5.90;;;5.00;;
15354;SDS011;7777;52.254;9.618;2023-09-07T04:36:33;11.07;;;5.70;;
15354;SDS011;7777;52.254;9.618;2023-09-07T04:38:59;7.50;;;5.50;;
15354;SDS011;7777;52.254;9.618;2023-09-07T04:41:25;8.20;;;4.90;;
15354;SDS011;7777;52.254;9.618;2023-09-07T04:43:50;7.40;;;5.63;;
15354;SDS011;7777;52.254;9.618;2023-09-07T04:46:16;8.47;;;5.27;;
15354;SDS011;7777;52.254;9.618;2023-09-07T04:48:42;6.67;;;4.43;;
15354;SDS011;7777;52.254;9.618;2023-09-07T04:51:08;12.20;;;5.07;;
15354;SDS011;7777;52.254;9.618;2023-09-07T04:53:37;8.40;;;5.07;;
15354;SDS011;7777;52.254;9.618;2023-09-07T04:56:04;8.33;;;5.10;;
15354;SDS011;7777;52.254;9.618;2023-09-07T04:58:31;6.90;;;4.60;;
15354;SDS011;7777;52.254;9.618;2023-09-07T05:01:04;8.27;;;4.60;;
15354;SDS011;7777;52.254;9.618;2023-09-07T05:03:31;13.80;;;5.27;;
15354;SDS011;7777;52.254;9.618;2023-09-07T05:05:58;7.90;;;5.33;;
15354;SDS011;7777;52.254;9.618;2023-09-07T05:08:24;10.97;;;5.73;;
15354;SDS011;7777;52.254;9.618;2023-09-07T05:11:00;7.83;;;5.03;;
15354;SDS011;7777;52.254;9.618;2023-09-07T05:13:28;7.27;;;4.73;;
15354;SDS011;7777;52.254;9.618;2023-09-07T05:15:54;7.40;;;4.87;;
15354;SDS011;7777;52.254;9.618;2023-09-07T05:18:21;7.13;;;4.97;;
15354;SDS011;7777;52.254;9.618;2023-09-07T05:20:47;6.27;;;5.10;;
15354;SDS011;7777;52.254;9.618;2023-09-07T05:23:16;7.40;;;5.00;;
15354;SDS011;7777;52.254;9.618;2023-09-07T05:25:54;6.30;;;4.80;;
15354;SDS011;7777;52.254;9.618;2023-09-07T05:28:21;7.00;;;4.90;;
15354;SDS011;7777;52.254;9.618;2023-09-07T05:30:47;7.20;;;5.30;;
15354;SDS011;7777;52.254;9.618;2023-09-07T05:33:15;11.57;;;4.77;;
15354;SDS011;7777;52.254;9.618;2023-09-07T05:35:42;8.03;;;4.60;;
15354;SDS011;7777;52.254;9.618;2023-09-07T05:38:11;5.40;;;4.73;;
15354;SDS011;7777;52.254;9.618;2023-09-07T05:40:37;9.80;;;5.00;;
15354;SDS011;7777;52.254;9.618;2023-09-07T05:43:05;6.80;;;5.17;;
15354;SDS011;7777;52.254;9.618;2023-09-07T05:45:33;6.77;;;5.03;;
15354;SDS011;7777;52.254;9.618;2023-09-07T05:48:04;10.03;;;5.47;;
15354;SDS011;7777;52.254;9.618;2023-09-07T05:50:37;9.30;;;5.63;;
15354;SDS011;7777;52.254;9.618;2023-09-07T05:53:04;7.37;;;5.63;;
15354;SDS011;7777;52.254;9.618;2023-09-07T05:55:32;7.53;;;5.63;;
15354;SDS011;7777;52.254;9.618;2023-09-07T05:57:58;6.90;;;5.57;;
15354;SDS011;7777;52.254;9.618;2023-09-07T06:00:25;9.30;;;5.20;;
15354;SDS011;7777;52.254;9.618;2023-09-07T06:02:50;6.93;;;4.87;;
15354;SDS011;7777;52.254;9.618;2023-09-07T06:05:17;8.27;;;5.70;;
15354;SDS011;7777;52.254;9.618;2023-09-07T06:07:43;6.00;;;5.37;;
15354;SDS011;7777;52.254;9.618;2023-09-07T06:10:09;10.33;;;5.20;;
15354;SDS011;7777;52.254;9.618;2023-09-07T06:12:35;10.70;;;6.03;;
15354;SDS011;7777;52.254;9.618;2023-09-07T06:15:01;6.53;;;5.60;;
15354;SDS011;7777;52.254;9.618;2023-09-07T06:17:28;6.20;;;5.10;;
15354;SDS011;7777;52.254;9.618;2023-09-07T06:19:54;8.40;;;5.60;;
15354;SDS011;7777;52.254;9.618;2023-09-07T06:22:20;7.57;;;5.30;;
15354;SDS011;7777;52.254;9.618;2023-09-07T06:24:46;11.93;;;6.17;;
15354;SDS011;7777;52.254;9.618;2023-09-07T06:27:12;7.50;;;5.10;;
15354;SDS011;7777;52.254;9.618;2023-09-07T06:29:38;8.70;;;5.57;;
15354;SDS011;7777;52.254;9.618;2023-09-07T06:32:03;14.03;;;6.60;;
15354;SDS011;7777;52.254;9.618;2023-09-07T06:34:29;7.10;;;4.90;;
15354;SDS011;7777;52.254;9.618;2023-09-07T06:36:55;9.87;;;5.93;;
15354;SDS011;7777;52.254;9.618;2023-09-07T06:39:21;6.27;;;4.73;;
15354;SDS011;7777;52.254;9.618;2023-09-07T06:41:47;7.87;;;4.93;;
15354;SDS011;7777;52.254;9.618;2023-09-07T06:44:13;7.50;;;5.03;;
15354;SDS011;7777;52.254;9.618;2023-09-07T06:46:39;7.70;;;5.10;;
15354;SDS011;7777;52.254;9.618;2023-09-07T06:49:05;7.17;;;5.23;;
15354;SDS011;7777;52.254;9.618;2023-09-07T06:51:31;8.03;;;5.40;;
15354;SDS011;7777;52.254;9.618;2023-09-07T06:53:57;7.27;;;5.07;;
15354;SDS011;7777;52.254;9.618;2023-09-07T06:56:23;8.10;;;5.43;;
15354;SDS011;7777;52.254;9.618;2023-09-07T06:58:49;7.67;;;6.30;;
15354;SDS011;7777;52.254;9.618;2023-09-07T07:01:16;11.10;;;6.33;;
15354;SDS011;7777;52.254;9.618;2023-09-07T07:03:41;12.83;;;5.77;;
15354;SDS011;7777;52.254;9.618;2023-09-07T07:06:07;8.73;;;6.07;;
15354;SDS011;7777;52.254;9.618;2023-09-07T07:08:33;7.73;;;5.73;;
15354;SDS011;7777;52.254;9.618;2023-09-07T07:10:59;10.30;;;5.87;;
15354;SDS011;7777;52.254;9.618;2023-09-07T07:13:25;7.40;;;6.40;;
15354;SDS011;7777;52.254;9.618;2023-09-07T07:15:51;7.37;;;5.97;;
15354;SDS011;7777;52.254;9.618;2023-09-07T07:18:17;8.10;;;5.57;;
15354;SDS011;7777;52.254;9.618;2023-09-07T07:20:43;7.43;;;6.13;;
15354;SDS011;7777;52.254;9.618;2023-09-07T07:23:09;9.20;;;5.73;;
15354;SDS011;7777;52.254;9.618;2023-09-07T07:25:35;6.80;;;6.10;;
15354;SDS011;7777;52.254;9.618;2023-09-07T07:28:05;9.00;;;6.20;;
15354;SDS011;7777;52.254;9.618;2023-09-07T07:30:36;8.00;;;6.13;;
15354;SDS011;7777;52.254;9.618;2023-09-07T07:33:03;8.03;;;5.53;;
15354;SDS011;7777;52.254;9.618;2023-09-07T07:35:30;9.87;;;6.43;;
15354;SDS011;7777;52.254;9.618;2023-09-07T07:37:56;7.23;;;5.93;;
15354;SDS011;7777;52.254;9.618;2023-09-07T07:40:22;9.57;;;6.13;;
15354;SDS011;7777;52.254;9.618;2023-09-07T07:42:48;9.73;;;6.23;;
15354;SDS011;7777;52.254;9.618;2023-09-07T07:45:15;9.27;;;5.63;;
15354;SDS011;7777;52.254;9.618;2023-09-07T07:47:44;11.07;;;6.10;;
15354;SDS011;7777;52.254;9.618;2023-09-07T07:50:11;8.90;;;6.27;;
15354;SDS011;7777;52.254;9.618;2023-09-07T07:52:37;8.03;;;5.97;;
15354;SDS011;7777;52.254;9.618;2023-09-07T07:55:03;7.43;;;5.90;;
15354;SDS011;7777;52.254;9.618;2023-09-07T07:57:29;11.17;;;6.93;;
15354;SDS011;7777;52.254;9.618;2023-09-07T07:59:56;7.70;;;5.97;;
15354;SDS011;7777;52.254;9.618;2023-09-07T08:02:22;9.87;;;6.57;;
15354;SDS011;7777;52.254;9.618;2023-09-07T08:04:48;10.00;;;6.00;;
15354;SDS011;7777;52.254;9.618;2023-09-07T08:07:13;7.43;;;6.17;;
15354;SDS011;7777;52.254;9.618;2023-09-07T08:09:39;8.07;;;6.30;;
15354;SDS011;7777;52.254;9.618;2023-09-07T08:12:05;8.93;;;5.80;;
15354;SDS011;7777;52.254;9.618;2023-09-07T08:14:31;11.27;;;6.37;;
15354;SDS011;7777;52.254;9.618;2023-09-07T08:16:57;8.07;;;6.40;;
15354;SDS011;7777;52.254;9.618;2023-09-07T08:19:24;7.30;;;5.63;;
15354;SDS011;7777;52.254;9.618;2023-09-07T08:21:50;8.47;;;6.20;;
15354;SDS011;7777;52.254;9.618;2023-09-07T08:24:16;9.87;;;5.90;;
15354;SDS011;7777;52.254;9.618;2023-09-07T08:26:43;7.27;;;6.57;;
15354;SDS011;7777;52.254;9.618;2023-09-07T08:29:09;7.93;;;5.80;;
15354;SDS011;7777;52.254;9.618;2023-09-07T08:31:36;10.00;;;6.10;;
15354;SDS011;7777;52.254;9.618;2023-09-07T08:34:04;9.33;;;6.27;;
15354;SDS011;7777;52.254;9.618;2023-09-07T08:36:31;11.97;;;6.13;;
15354;SDS011;7777;52.254;9.618;2023-09-07T08:39:02;12.33;;;7.33;;
15354;SDS011;7777;52.254;9.618;2023-09-07T08:41:31;8.27;;;6.23;;
15354;SDS011;7777;52.254;9.618;2023-09-07T08:44:06;11.23;;;7.43;;
15354;SDS011;7777;52.254;9.618;2023-09-07T08:46:33;11.37;;;7.83;;
15354;SDS011;7777;52.254;9.618;2023-09-07T08:48:59;13.30;;;7.63;;
15354;SDS011;7777;52.254;9.618;2023-09-07T08:51:26;8.80;;;6.37;;
15354;SDS011;7777;52.254;9.618;2023-09-07T08:53:56;10.23;;;6.57;;
15354;SDS011;7777;52.254;9.618;2023-09-07T08:56:25;12.63;;;6.30;;
15354;SDS011;7777;52.254;9.618;2023-09-07T08:58:51;9.80;;;6.73;;
15354;SDS011;7777;52.254;9.618;2023-09-07T09:01:17;9.10;;;6.47;;
15354;SDS011;7777;52.254;9.618;2023-09-07T09:03:43;8.33;;;6.33;;
15354;SDS011;7777;52.254;9.618;2023-09-07T09:06:10;7.90;;;5.70;;
15354;SDS011;7777;52.254;9.618;2023-09-07T09:11:22;10.10;;;6.43;;
15354;SDS011;7777;52.254;9.618;2023-09-07T09:13:50;6.70;;;5.40;;
15354;SDS011;7777;52.254;9.618;2023-09-07T09:16:18;11.30;;;5.57;;
15354;SDS011;7777;52.254;9.618;2023-09-07T09:18:48;13.40;;;6.67;;
15354;SDS011;7777;52.254;9.618;2023-09-07T09:21:18;7.83;;;5.57;;
15354;SDS011;7777;52.254;9.618;2023-09-07T09:23:47;8.23;;;5.97;;
15354;SDS011;7777;52.254;9.618;2023-09-07T09:26:15;12.33;;;6.40;;
15354;SDS011;7777;52.254;9.618;2023-09-07T09:28:41;8.73;;;6.37;;
15354;SDS011;7777;52.254;9.618;2023-09-07T09:31:10;12.17;;;6.10;;
15354;SDS011;7777;52.254;9.618;2023-09-07T09:33:42;14.37;;;6.47;;
15354;SDS011;7777;52.254;9.618;2023-09-07T09:36:13;8.37;;;6.27;;
15354;SDS011;7777;52.254;9.618;2023-09-07T09:38:39;14.97;;;7.10;;
15354;SDS011;7777;52.254;9.618;2023-09-07T09:41:05;12.10;;;6.10;;
15354;SDS011;7777;52.254;9.618;2023-09-07T09:43:32;12.07;;;5.53;;
15354;SDS011;7777;52.254;9.618;2023-09-07T09:45:58;9.77;;;6.03;;
15354;SDS011;7777;52.254;9.618;2023-09-07T09:48:27;14.80;;;5.93;;
15354;SDS011;7777;52.254;9.618;2023-09-07T09:50:53;7.97;;;6.37;;
15354;SDS011;7777;52.254;9.618;2023-09-07T09:53:20;11.97;;;6.30;;
15354;SDS011;7777;52.254;9.618;2023-09-07T09:55:48;14.47;;;6.07;;
15354;SDS011;7777;52.254;9.618;2023-09-07T09:58:15;11.93;;;5.93;;
15354;SDS011;7777;52.254;9.618;2023-09-07T10:00:45;10.67;;;5.93;;
15354;SDS011;7777;52.254;9.618;2023-09-07T10:03:22;10.00;;;5.97;;
15354;SDS011;7777;52.254;9.618;2023-09-07T10:06:10;10.47;;;5.53;;
15354;SDS011;7777;52.254;9.618;2023-09-07T10:08:53;12.13;;;6.13;;
15354;SDS011;7777;52.254;9.618;2023-09-07T10:11:36;10.50;;;5.67;;
15354;SDS011;7777;52.254;9.618;2023-09-07T10:14:06;9.90;;;5.33;;
15354;SDS011;7777;52.254;9.618;2023-09-07T10:19:20;7.80;;;5.70;;
15354;SDS011;7777;52.254;9.618;2023-09-07T10:21:50;11.27;;;6.17;;
15354;SDS011;7777;52.254;9.618;2023-09-07T10:27:08;8.27;;;4.73;;
15354;SDS011;7777;52.254;9.618;2023-09-07T10:29:53;15.17;;;5.37;;
15354;SDS011;7777;52.254;9.618;2023-09-07T10:35:38;7.90;;;5.23;;
15354;SDS011;7777;52.254;9.618;2023-09-07T10:38:07;7.03;;;5.10;;
15354;SDS011;7777;52.254;9.618;2023-09-07T10:40:38;12.63;;;5.90;;
15354;SDS011;7777;52.254;9.618;2023-09-07T10:43:05;10.83;;;5.60;;
15354;SDS011;7777;52.254;9.618;2023-09-07T10:45:43;13.70;;;5.00;;
15354;SDS011;7777;52.254;9.618;2023-09-07T10:51:21;8.50;;;4.93;;
15354;SDS011;7777;52.254;9.618;2023-09-07T10:53:48;8.43;;;4.90;;
15354;SDS011;7777;52.254;9.618;2023-09-07T10:56:19;8.87;;;4.23;;
15354;SDS011;7777;52.254;9.618;2023-09-07T10:58:53;5.83;;;4.53;;
15354;SDS011;7777;52.254;9.618;2023-09-07T11:01:21;13.63;;;5.27;;
15354;SDS011;7777;52.254;9.618;2023-09-07T11:03:58;9.53;;;5.17;;
15354;SDS011;7777;52.254;9.618;2023-09-07T11:10:11;10.87;;;5.10;;
15354;SDS011;7777;52.254;9.618;2023-09-07T11:13:23;9.30;;;4.53;;
15354;SDS011;7777;52.254;9.618;2023-09-07T11:15:53;6.13;;;4.80;;
15354;SDS011;7777;52.254;9.618;2023-09-07T11:19:22;5.53;;;3.80;;
15354;SDS011;7777;52.254;9.618;2023-09-07T11:22:01;6.30;;;4.50;;
15354;SDS011;7777;52.254;9.618;2023-09-07T11:24:34;7.13;;;4.47;;
15354;SDS011;7777;52.254;9.618;2023-09-07T11:28:01;9.97;;;4.70;;
15354;SDS011;7777;52.254;9.618;2023-09-07T11:31:02;10.03;;;4.87;;
15354;SDS011;7777;52.254;9.618;2023-09-07T11:33:31;6.93;;;4.10;;
15354;SDS011;7777;52.254;9.618;2023-09-07T11:36:42;15.40;;;4.47;;
15354;SDS011;7777;52.254;9.618;2023-09-07T11:39:11;7.60;;;4.22;;
15354;SDS011;7777;52.254;9.618;2023-09-07T11:41:54;5.53;;;4.28;;
15354;SDS011;7777;52.254;9.618;2023-09-07T11:44:20;7.07;;;4.18;;
15354;SDS011;7777;52.254;9.618;2023-09-07T11:46:49;9.02;;;4.60;;
15354;SDS011;7777;52.254;9.618;2023-09-07T11:49:17;10.07;;;4.25;;
15354;SDS011;7777;52.254;9.618;2023-09-07T11:51:45;7.95;;;3.95;;
15354;SDS011;7777;52.254;9.618;2023-09-07T11:54:10;6.97;;;4.65;;
15354;SDS011;7777;52.254;9.618;2023-09-07T11:56:36;10.23;;;4.30;;
15354;SDS011;7777;52.254;9.618;2023-09-07T11:59:06;12.75;;;3.97;;
15354;SDS011;7777;52.254;9.618;2023-09-07T12:01:35;7.95;;;4.03;;
15354;SDS011;7777;52.254;9.618;2023-09-07T12:04:01;8.93;;;4.35;;
15354;SDS011;7777;52.254;9.618;2023-09-07T12:06:29;9.43;;;4.30;;
15354;SDS011;7777;52.254;9.618;2023-09-07T12:08:59;7.85;;;4.75;;
15354;SDS011;7777;52.254;9.618;2023-09-07T12:11:26;5.53;;;4.05;;
15354;SDS011;7777;52.254;9.618;2023-09-07T12:13:53;5.22;;;3.65;;
15354;SDS011;7777;52.254;9.618;2023-09-07T12:16:18;7.57;;;4.13;;
15354;SDS011;7777;52.254;9.618;2023-09-07T12:18:44;6.03;;;3.90;;
15354;SDS011;7777;52.254;9.618;2023-09-07T12:21:10;8.25;;;4.00;;
15354;SDS011;7777;52.254;9.618;2023-09-07T12:23:36;6.35;;;4.25;;
15354;SDS011;7777;52.254;9.618;2023-09-07T12:26:02;5.40;;;3.53;;
15354;SDS011;7777;52.254;9.618;2023-09-07T12:28:31;4.78;;;3.25;;
15354;SDS011;7777;52.254;9.618;2023-09-07T12:30:57;5.82;;;3.80;;
15354;SDS011;7777;52.254;9.618;2023-09-07T12:33:28;6.63;;;3.63;;
15354;SDS011;7777;52.254;9.618;2023-09-07T12:36:04;7.00;;;4.38;;
15354;SDS011;7777;52.254;9.618;2023-09-07T12:38:34;10.00;;;4.32;;
15354;SDS011;7777;52.254;9.618;2023-09-07T12:41:00;9.70;;;4.15;;
15354;SDS011;7777;52.254;9.618;2023-09-07T12:43:25;7.20;;;3.83;;
15354;SDS011;7777;52.254;9.618;2023-09-07T12:46:03;13.00;;;4.28;;
15354;SDS011;7777;52.254;9.618;2023-09-07T12:48:30;6.38;;;3.63;;
15354;SDS011;7777;52.254;9.618;2023-09-07T12:51:00;6.53;;;4.43;;
15354;SDS011;7777;52.254;9.618;2023-09-07T12:53:26;5.30;;;3.55;;
15354;SDS011;7777;52.254;9.618;2023-09-07T12:55:52;10.05;;;3.72;;
15354;SDS011;7777;52.254;9.618;2023-09-07T12:58:28;3.55;;;3.03;;
15354;SDS011;7777;52.254;9.618;2023-09-07T13:01:02;8.95;;;4.22;;
15354;SDS011;7777;52.254;9.618;2023-09-07T13:03:28;6.03;;;3.60;;
15354;SDS011;7777;52.254;9.618;2023-09-07T13:05:58;12.95;;;3.42;;
15354;SDS011;7777;52.254;9.618;2023-09-07T13:12:19;8.80;;;4.28;;
15354;SDS011;7777;52.254;9.618;2023-09-07T13:14:45;8.68;;;3.65;;
15354;SDS011;7777;52.254;9.618;2023-09-07T13:17:12;15.95;;;3.58;;
15354;SDS011;7777;52.254;9.618;2023-09-07T13:19:41;10.85;;;3.50;;
15354;SDS011;7777;52.254;9.618;2023-09-07T13:22:08;5.82;;;3.83;;
15354;SDS011;7777;52.254;9.618;2023-09-07T13:24:40;8.90;;;3.70;;
15354;SDS011;7777;52.254;9.618;2023-09-07T13:27:33;5.55;;;3.75;;
15354;SDS011;7777;52.254;9.618;2023-09-07T13:30:03;8.93;;;3.78;;
15354;SDS011;7777;52.254;9.618;2023-09-07T13:32:59;5.53;;;3.25;;
15354;SDS011;7777;52.254;9.618;2023-09-07T13:35:25;10.43;;;3.97;;
15354;SDS011;7777;52.254;9.618;2023-09-07T13:37:51;7.97;;;4.07;;
15354;SDS011;7777;52.254;9.618;2023-09-07T13:40:18;5.97;;;3.80;;
15354;SDS011;7777;52.254;9.618;2023-09-07T13:42:47;8.20;;;4.05;;
15354;SDS011;7777;52.254;9.618;2023-09-07T13:45:14;10.43;;;4.40;;
15354;SDS011;7777;52.254;9.618;2023-09-07T13:47:41;6.45;;;3.63;;
15354;SDS011;7777;52.254;9.618;2023-09-07T13:50:07;6.40;;;3.50;;
15354;SDS011;7777;52.254;9.618;2023-09-07T13:52:33;7.32;;;3.80;;
15354;SDS011;7777;52.254;9.618;2023-09-07T13:55:09;6.60;;;4.03;;
15354;SDS011;7777;52.254;9.618;2023-09-07T13:57:42;6.50;;;3.78;;
15354;SDS011;7777;52.254;9.618;2023-09-07T14:00:10;10.15;;;4.40;;
15354;SDS011;7777;52.254;9.618;2023-09-07T14:02:38;7.32;;;3.90;;
15354;SDS011;7777;52.254;9.618;2023-09-07T14:05:06;6.15;;;3.55;;
15354;SDS011;7777;52.254;9.618;2023-09-07T14:07:35;5.85;;;3.97;;
15354;SDS011;7777;52.254;9.618;2023-09-07T14:10:02;6.15;;;3.65;;
15354;SDS011;7777;52.254;9.618;2023-09-07T14:12:29;18.25;;;3.75;;
15354;SDS011;7777;52.254;9.618;2023-09-07T14:14:58;9.45;;;4.25;;
15354;SDS011;7777;52.254;9.618;2023-09-07T14:17:24;7.85;;;3.67;;
15354;SDS011;7777;52.254;9.618;2023-09-07T14:19:50;8.23;;;3.88;;
15354;SDS011;7777;52.254;9.618;2023-09-07T14:22:15;8.95;;;3.72;;
15354;SDS011;7777;52.254;9.618;2023-09-07T14:24:41;9.10;;;3.83;;
15354;SDS011;7777;52.254;9.618;2023-09-07T14:27:07;10.40;;;3.67;;
15354;SDS011;7777;52.254;9.618;2023-09-07T14:29:34;15.90;;;3.78;;
15354;SDS011;7777;52.254;9.618;2023-09-07T14:32:00;7.03;;;3.08;;
15354;SDS011;7777;52.254;9.618;2023-09-07T14:34:27;7.60;;;3.90;;
15354;SDS011;7777;52.254;9.618;2023-09-07T14:36:53;6.38;;;3.33;;
15354;SDS011;7777;52.254;9.618;2023-09-07T14:39:20;6.22;;;3.30;;
15354;SDS011;7777;52.254;9.618;2023-09-07T14:41:49;8.27;;;2.92;;
15354;SDS011;7777;52.254;9.618;2023-09-07T14:44:18;4.97;;;3.10;;
15354;SDS011;7777;52.254;9.618;2023-09-07T14:46:44;5.25;;;4.00;;
15354;SDS011;7777;52.254;9.618;2023-09-07T14:49:12;6.35;;;3.25;;
15354;SDS011;7777;52.254;9.618;2023-09-07T14:51:37;9.88;;;3.65;;
15354;SDS011;7777;52.254;9.618;2023-09-07T14:54:03;7.53;;;3.05;;
15354;SDS011;7777;52.254;9.618;2023-09-07T14:56:29;6.13;;;3.30;;
15354;SDS011;7777;52.254;9.618;2023-09-07T14:58:56;9.98;;;3.63;;
15354;SDS011;7777;52.254;9.618;2023-09-07T15:01:22;6.20;;;3.35;;
15354;SDS011;7777;52.254;9.618;2023-09-07T15:03:48;7.65;;;3.45;;
15354;SDS011;7777;52.254;9.618;2023-09-07T15:06:22;7.15;;;3.17;;
15354;SDS011;7777;52.254;9.618;2023-09-07T15:08:48;5.10;;;3.35;;
15354;SDS011;7777;52.254;9.618;2023-09-07T15:11:15;4.68;;;3.55;;
15354;SDS011;7777;52.254;9.618;2023-09-07T15:13:41;7.65;;;3.33;;
15354;SDS011;7777;52.254;9.618;2023-09-07T15:16:24;4.38;;;3.22;;
15354;SDS011;7777;52.254;9.618;2023-09-07T15:19:13;9.27;;;3.63;;
15354;SDS011;7777;52.254;9.618;2023-09-07T15:21:38;8.02;;;3.55;;
15354;SDS011;7777;52.254;9.618;2023-09-07T15:24:05;6.30;;;3.75;;
15354;SDS011;7777;52.254;9.618;2023-09-07T15:26:46;4.30;;;3.03;;
15354;SDS011;7777;52.254;9.618;2023-09-07T15:29:13;6.72;;;3.28;;